CDT,Max TemperatureF,Mean TemperatureF,Min TemperatureF,Max Dew PointF,MeanDew PointF,Min DewpointF,Max Humidity, Mean Humidity, Min Humidity, Max Sea Level PressureIn, Mean Sea Level PressureIn, Min Sea Level PressureIn, Max VisibilityMiles, Mean VisibilityMiles, Min VisibilityMiles, Max Wind SpeedMPH, Mean Wind SpeedMPH, Max Gust SpeedMPH,PrecipitationIn, CloudCover, Events, WindDirDegrees
2013-8-1,102,86,70,67,60,55,68,46,24,30.02,29.95,29.88,10,10,10,15,6,25,0.00,0,,235
2013-8-2,103,89,75,63,59,54,60,41,21,29.94,29.87,29.81,10,10,10,18,8,23,0.00,1,,180
2013-8-3,102,90,78,63,58,53,58,40,21,29.95,29.89,29.85,10,10,10,20,10,25,0.00,0,,173
2013-8-4,101,90,78,69,61,54,74,49,23,30.02,29.93,29.85,10,10,10,16,10,24,0.00,0,,160
2013-8-5,101,89,77,67,61,54,62,43,24,29.98,29.90,29.79,10,10,10,17,10,22,0.00,0,,172
2013-8-6,106,91,76,70,63,56,67,45,22,29.88,29.82,29.73,10,10,10,28,8,33,0.01,1,Rain-Thunderstorm,190
2013-8-7,108,92,75,67,62,54,62,40,18,29.93,29.82,29.70,10,10,10,30,9,39,0.04,2,Thunderstorm,200
2013-8-8,105,89,73,72,65,55,93,57,20,29.94,29.82,29.70,10,9,2,37,9,53,0.18,2,Rain-Thunderstorm,177
2013-8-9,102,87,72,70,64,56,87,55,23,29.96,29.87,29.82,10,10,10,17,6,20,0.00,0,,120
2013-8-10,97,85,73,70,67,63,87,61,34,30.08,30.01,29.94,10,10,10,20,8,25,0.00,0,,50
2013-8-11,98,84,70,68,64,61,84,57,29,30.06,30.00,29.93,10,10,10,18,6,23,0.00,1,,143
2013-8-12,98,85,71,68,63,59,79,55,31,30.03,29.97,29.89,10,10,10,14,7,21,0.00,1,,180
2013-8-13,101,89,76,68,61,57,69,48,26,29.99,29.93,29.85,10,10,10,16,8,22,0.00,2,,168
2013-8-14,89,82,75,69,63,58,65,51,36,30.04,29.96,29.89,10,10,10,20,8,24,0.00,1,,54
2013-8-15,97,84,71,68,64,61,74,52,30,30.08,29.96,29.88,10,10,2,21,6,26,0.00,0,,68
2013-8-16,97,82,67,66,59,48,87,54,20,30.20,30.00,29.91,10,10,4,28,8,39,T,1,,69
2013-8-17,96,80,64,63,57,50,87,55,22,30.06,29.99,29.91,10,10,10,17,6,23,0.00,0,,84
2013-8-18,100,84,67,60,55,53,66,45,24,30.03,29.97,29.90,10,10,10,21,7,29,0.00,0,,105
2013-8-19,98,83,67,59,56,54,63,44,25,30.01,29.94,29.86,10,10,10,16,6,20,0.00,0,,136
2013-8-20,97,85,73,61,56,51,64,44,24,29.99,29.94,29.89,10,10,10,18,9,23,0.00,0,,151
2013-8-21,95,82,68,66,58,51,78,52,26,30.05,29.98,29.92,10,10,10,17,7,23,0.00,1,,129
2013-8-22,97,84,70,66,62,56,79,52,25,30.06,29.98,29.89,10,10,10,17,6,24,0.00,2,,167
2013-8-23,95,83,70,70,65,60,87,62,36,30.02,29.97,29.93,10,9,1,30,4,41,0.58,3,Rain-Thunderstorm,196
2013-8-24,95,82,68,71,67,63,100,68,36,30.06,30.00,29.93,10,10,9,18,4,24,T,1,,154
2013-8-25,96,84,71,69,64,59,84,58,32,30.10,30.04,29.98,10,10,10,21,7,25,0.00,0,,101
2013-8-26,91,80,68,67,64,61,84,61,38,30.12,30.06,30.00,10,10,10,20,8,23,0.00,2,,87
2013-8-27,85,76,67,70,66,64,93,74,55,30.13,30.03,29.99,10,10,10,22,6,28,T,2,Rain,154
2013-8-28,94,82,70,70,64,53,90,58,26,30.15,30.04,29.96,10,10,10,20,8,23,0.00,2,,175
2013-8-29,96,82,67,67,60,56,81,53,25,30.09,30.02,29.95,10,10,10,15,6,20,0.00,0,,180
2013-8-30,98,83,67,64,58,56,73,49,25,30.03,29.95,29.87,10,10,10,14,6,23,0.00,1,,208
2013-8-31,100,86,71,62,58,54,68,45,22,29.93,29.86,29.78,10,10,10,16,6,24,0.00,0,,206